sensor_id;sensor_type;location;lat;lon;timestamp;temperature;humidity
17495;DHT22;8864;51.970;4.614;2023-06-22T00:01:02;26.00;63.90
17495;DHT22;8864;51.970;4.614;2023-06-22T00:03:29;26.00;63.90
17495;DHT22;8864;51.970;4.614;2023-06-22T00:05:56;26.00;63.90
17495;DHT22;8864;51.970;4.614;2023-06-22T00:08:23;25.90;63.90
17495;DHT22;8864;51.970;4.614;2023-06-22T00:10:50;25.90;64.00
17495;DHT22;8864;51.970;4.614;2023-06-22T00:13:18;25.90;64.00
17495;DHT22;8864;51.970;4.614;2023-06-22T00:15:45;25.90;63.90
17495;DHT22;8864;51.970;4.614;2023-06-22T00:18:12;25.90;64.00
17495;DHT22;8864;51.970;4.614;2023-06-22T00:20:39;25.80;64.00
17495;DHT22;8864;51.970;4.614;2023-06-22T00:23:07;25.90;64.10
17495;DHT22;8864;51.970;4.614;2023-06-22T00:25:34;25.80;64.10
17495;DHT22;8864;51.970;4.614;2023-06-22T00:28:02;25.80;64.10
17495;DHT22;8864;51.970;4.614;2023-06-22T00:30:31;25.80;64.20
17495;DHT22;8864;51.970;4.614;2023-06-22T00:32:59;25.80;64.30
17495;DHT22;8864;51.970;4.614;2023-06-22T00:35:26;25.80;64.30
17495;DHT22;8864;51.970;4.614;2023-06-22T00:37:54;25.80;64.30
17495;DHT22;8864;51.970;4.614;2023-06-22T00:40:26;25.80;64.30
17495;DHT22;8864;51.970;4.614;2023-06-22T00:42:54;25.80;64.40
17495;DHT22;8864;51.970;4.614;2023-06-22T00:45:21;25.80;64.40
17495;DHT22;8864;51.970;4.614;2023-06-22T00:47:50;25.70;64.30
17495;DHT22;8864;51.970;4.614;2023-06-22T00:50:19;25.70;64.30
17495;DHT22;8864;51.970;4.614;2023-06-22T00:52:49;25.70;64.30
17495;DHT22;8864;51.970;4.614;2023-06-22T00:55:18;25.70;64.30
17495;DHT22;8864;51.970;4.614;2023-06-22T00:57:46;25.70;64.30
17495;DHT22;8864;51.970;4.614;2023-06-22T01:00:13;25.70;64.50
17495;DHT22;8864;51.970;4.614;2023-06-22T01:02:42;25.70;64.50
17495;DHT22;8864;51.970;4.614;2023-06-22T01:05:12;25.60;64.50
17495;DHT22;8864;51.970;4.614;2023-06-22T01:07:42;25.60;64.50
17495;DHT22;8864;51.970;4.614;2023-06-22T01:10:16;25.60;64.50
17495;DHT22;8864;51.970;4.614;2023-06-22T01:12:45;25.60;64.50
17495;DHT22;8864;51.970;4.614;2023-06-22T01:15:18;25.60;64.50
17495;DHT22;8864;51.970;4.614;2023-06-22T01:17:48;25.60;64.60
17495;DHT22;8864;51.970;4.614;2023-06-22T01:20:17;25.60;64.60
17495;DHT22;8864;51.970;4.614;2023-06-22T01:22:54;25.60;64.70
17495;DHT22;8864;51.970;4.614;2023-06-22T01:25:36;25.60;64.80
17495;DHT22;8864;51.970;4.614;2023-06-22T01:28:17;25.60;64.90
17495;DHT22;8864;51.970;4.614;2023-06-22T01:30:49;25.60;64.80
17495;DHT22;8864;51.970;4.614;2023-06-22T01:33:33;25.60;65.00
17495;DHT22;8864;51.970;4.614;2023-06-22T01:36:01;25.50;64.90
17495;DHT22;8864;51.970;4.614;2023-06-22T01:38:29;25.50;64.90
17495;DHT22;8864;51.970;4.614;2023-06-22T01:40:57;25.50;64.90
17495;DHT22;8864;51.970;4.614;2023-06-22T01:43:26;25.50;64.90
17495;DHT22;8864;51.970;4.614;2023-06-22T01:45:55;25.50;65.00
17495;DHT22;8864;51.970;4.614;2023-06-22T01:48:22;25.50;65.10
17495;DHT22;8864;51.970;4.614;2023-06-22T01:50:51;25.40;65.20
17495;DHT22;8864;51.970;4.614;2023-06-22T01:53:20;25.40;65.20
17495;DHT22;8864;51.970;4.614;2023-06-22T01:55:47;25.50;65.30
17495;DHT22;8864;51.970;4.614;2023-06-22T01:58:15;25.50;65.30
17495;DHT22;8864;51.970;4.614;2023-06-22T02:00:48;25.40;65.20
17495;DHT22;8864;51.970;4.614;2023-06-22T02:03:21;25.40;65.20
17495;DHT22;8864;51.970;4.614;2023-06-22T02:05:52;25.40;65.30
17495;DHT22;8864;51.970;4.614;2023-06-22T02:08:23;25.40;65.20
17495;DHT22;8864;51.970;4.614;2023-06-22T02:10:52;25.40;65.20
17495;DHT22;8864;51.970;4.614;2023-06-22T02:13:21;25.40;65.20
17495;DHT22;8864;51.970;4.614;2023-06-22T02:15:48;25.40;65.20
17495;DHT22;8864;51.970;4.614;2023-06-22T02:18:15;25.40;65.30
17495;DHT22;8864;51.970;4.614;2023-06-22T02:20:43;25.40;65.30
17495;DHT22;8864;51.970;4.614;2023-06-22T02:23:11;25.30;65.30
17495;DHT22;8864;51.970;4.614;2023-06-22T02:25:38;25.40;65.30
17495;DHT22;8864;51.970;4.614;2023-06-22T02:28:05;25.40;65.30
17495;DHT22;8864;51.970;4.614;2023-06-22T02:30:32;25.30;65.30
17495;DHT22;8864;51.970;4.614;2023-06-22T02:32:59;25.30;65.40
17495;DHT22;8864;51.970;4.614;2023-06-22T02:35:26;25.30;65.40
17495;DHT22;8864;51.970;4.614;2023-06-22T02:37:58;25.30;65.50
17495;DHT22;8864;51.970;4.614;2023-06-22T02:40:25;25.30;65.40
17495;DHT22;8864;51.970;4.614;2023-06-22T02:42:52;25.30;65.50
17495;DHT22;8864;51.970;4.614;2023-06-22T02:45:19;25.30;65.60
17495;DHT22;8864;51.970;4.614;2023-06-22T02:47:46;25.30;65.70
17495;DHT22;8864;51.970;4.614;2023-06-22T02:50:14;25.20;65.70
17495;DHT22;8864;51.970;4.614;2023-06-22T02:52:41;25.20;65.70
17495;DHT22;8864;51.970;4.614;2023-06-22T02:55:10;25.20;65.60
17495;DHT22;8864;51.970;4.614;2023-06-22T02:57:36;25.20;65.80
17495;DHT22;8864;51.970;4.614;2023-06-22T03:00:10;25.20;65.90
17495;DHT22;8864;51.970;4.614;2023-06-22T03:02:43;25.20;65.90
17495;DHT22;8864;51.970;4.614;2023-06-22T03:05:10;25.20;65.90
17495;DHT22;8864;51.970;4.614;2023-06-22T03:07:40;25.20;65.90
17495;DHT22;8864;51.970;4.614;2023-06-22T03:10:10;25.20;66.00
17495;DHT22;8864;51.970;4.614;2023-06-22T03:12:37;25.20;66.00
17495;DHT22;8864;51.970;4.614;2023-06-22T03:15:05;25.20;65.90
17495;DHT22;8864;51.970;4.614;2023-06-22T03:17:33;25.20;66.00
17495;DHT22;8864;51.970;4.614;2023-06-22T03:20:00;25.10;66.10
17495;DHT22;8864;51.970;4.614;2023-06-22T03:22:27;25.20;66.20
17495;DHT22;8864;51.970;4.614;2023-06-22T03:24:53;25.10;66.30
17495;DHT22;8864;51.970;4.614;2023-06-22T03:27:22;25.10;66.20
17495;DHT22;8864;51.970;4.614;2023-06-22T03:29:49;25.10;66.30
17495;DHT22;8864;51.970;4.614;2023-06-22T03:32:15;25.10;66.30
17495;DHT22;8864;51.970;4.614;2023-06-22T03:34:42;25.10;66.30
17495;DHT22;8864;51.970;4.614;2023-06-22T03:37:13;25.10;66.30
17495;DHT22;8864;51.970;4.614;2023-06-22T03:39:41;25.10;66.40
17495;DHT22;8864;51.970;4.614;2023-06-22T03:42:08;25.10;66.30
17495;DHT22;8864;51.970;4.614;2023-06-22T03:44:36;25.10;66.40
17495;DHT22;8864;51.970;4.614;2023-06-22T03:47:04;25.10;66.40
17495;DHT22;8864;51.970;4.614;2023-06-22T03:49:32;25.10;66.60
17495;DHT22;8864;51.970;4.614;2023-06-22T03:52:00;25.10;66.60
17495;DHT22;8864;51.970;4.614;2023-06-22T03:54:27;25.10;66.60
17495;DHT22;8864;51.970;4.614;2023-06-22T03:56:54;25.10;66.60
17495;DHT22;8864;51.970;4.614;2023-06-22T03:59:21;25.10;66.60
17495;DHT22;8864;51.970;4.614;2023-06-22T04:01:49;25.00;66.60
17495;DHT22;8864;51.970;4.614;2023-06-22T04:04:17;25.00;66.70
17495;DHT22;8864;51.970;4.614;2023-06-22T04:06:44;25.00;66.70
17495;DHT22;8864;51.970;4.614;2023-06-22T04:09:11;25.00;66.90
17495;DHT22;8864;51.970;4.614;2023-06-22T04:11:38;25.00;66.90
17495;DHT22;8864;51.970;4.614;2023-06-22T04:14:05;25.00;67.00
17495;DHT22;8864;51.970;4.614;2023-06-22T04:16:33;25.00;67.00
17495;DHT22;8864;51.970;4.614;2023-06-22T04:19:01;25.00;67.00
17495;DHT22;8864;51.970;4.614;2023-06-22T04:21:28;25.00;67.00
17495;DHT22;8864;51.970;4.614;2023-06-22T04:23:55;25.00;67.30
17495;DHT22;8864;51.970;4.614;2023-06-22T04:26:21;24.90;67.50
17495;DHT22;8864;51.970;4.614;2023-06-22T04:28:48;25.00;67.70
17495;DHT22;8864;51.970;4.614;2023-06-22T04:31:17;24.90;67.70
17495;DHT22;8864;51.970;4.614;2023-06-22T04:33:45;24.90;67.70
17495;DHT22;8864;51.970;4.614;2023-06-22T04:36:13;24.90;67.70
17495;DHT22;8864;51.970;4.614;2023-06-22T04:38:40;24.70;67.70
17495;DHT22;8864;51.970;4.614;2023-06-22T04:41:08;24.90;67.90
17495;DHT22;8864;51.970;4.614;2023-06-22T04:43:48;24.80;68.00
17495;DHT22;8864;51.970;4.614;2023-06-22T04:46:19;24.80;68.20
17495;DHT22;8864;51.970;4.614;2023-06-22T04:48:46;24.80;68.30
17495;DHT22;8864;51.970;4.614;2023-06-22T04:51:14;24.80;68.50
17495;DHT22;8864;51.970;4.614;2023-06-22T04:53:41;24.80;68.60
17495;DHT22;8864;51.970;4.614;2023-06-22T04:56:08;24.70;68.70
17495;DHT22;8864;51.970;4.614;2023-06-22T04:58:35;24.80;68.90
17495;DHT22;8864;51.970;4.614;2023-06-22T05:01:02;24.80;69.00
17495;DHT22;8864;51.970;4.614;2023-06-22T05:03:29;24.80;69.00
17495;DHT22;8864;51.970;4.614;2023-06-22T05:05:56;24.80;69.10
17495;DHT22;8864;51.970;4.614;2023-06-22T05:08:24;24.80;69.20
17495;DHT22;8864;51.970;4.614;2023-06-22T05:10:54;24.80;69.30
17495;DHT22;8864;51.970;4.614;2023-06-22T05:13:21;24.70;69.30
17495;DHT22;8864;51.970;4.614;2023-06-22T05:15:51;24.80;69.60
17495;DHT22;8864;51.970;4.614;2023-06-22T05:18:26;24.80;69.80
17495;DHT22;8864;51.970;4.614;2023-06-22T05:20:53;24.70;69.80
17495;DHT22;8864;51.970;4.614;2023-06-22T05:23:20;24.80;70.00
17495;DHT22;8864;51.970;4.614;2023-06-22T05:25:48;24.80;69.90
17495;DHT22;8864;51.970;4.614;2023-06-22T05:28:15;24.80;69.70
17495;DHT22;8864;51.970;4.614;2023-06-22T05:30:42;24.80;69.80
17495;DHT22;8864;51.970;4.614;2023-06-22T05:33:09;24.80;69.80
17495;DHT22;8864;51.970;4.614;2023-06-22T05:35:36;24.80;69.80
17495;DHT22;8864;51.970;4.614;2023-06-22T05:38:03;24.80;69.90
17495;DHT22;8864;51.970;4.614;2023-06-22T05:40:30;24.80;69.90
17495;DHT22;8864;51.970;4.614;2023-06-22T05:42:58;24.80;69.90
17495;DHT22;8864;51.970;4.614;2023-06-22T05:45:26;24.90;70.00
17495;DHT22;8864;51.970;4.614;2023-06-22T05:47:53;24.90;70.20
17495;DHT22;8864;51.970;4.614;2023-06-22T05:50:20;24.80;70.10
17495;DHT22;8864;51.970;4.614;2023-06-22T05:52:47;24.80;70.20
17495;DHT22;8864;51.970;4.614;2023-06-22T05:55:14;24.80;70.30
17495;DHT22;8864;51.970;4.614;2023-06-22T05:57:44;24.80;70.30
17495;DHT22;8864;51.970;4.614;2023-06-22T06:00:13;24.80;70.30
17495;DHT22;8864;51.970;4.614;2023-06-22T06:02:40;24.80;70.30
17495;DHT22;8864;51.970;4.614;2023-06-22T06:05:09;24.80;70.30
17495;DHT22;8864;51.970;4.614;2023-06-22T06:07:36;24.90;70.50
17495;DHT22;8864;51.970;4.614;2023-06-22T06:10:04;24.90;70.40
17495;DHT22;8864;51.970;4.614;2023-06-22T06:12:31;24.90;71.40
17495;DHT22;8864;51.970;4.614;2023-06-22T06:14:58;24.90;70.60
17495;DHT22;8864;51.970;4.614;2023-06-22T06:17:27;24.90;70.50
17495;DHT22;8864;51.970;4.614;2023-06-22T06:19:54;24.90;70.50
17495;DHT22;8864;51.970;4.614;2023-06-22T06:22:21;24.90;70.50
17495;DHT22;8864;51.970;4.614;2023-06-22T06:24:49;24.90;70.60
17495;DHT22;8864;51.970;4.614;2023-06-22T06:27:16;24.90;70.50
17495;DHT22;8864;51.970;4.614;2023-06-22T06:29:44;24.90;70.60
17495;DHT22;8864;51.970;4.614;2023-06-22T06:32:14;24.90;70.50
17495;DHT22;8864;51.970;4.614;2023-06-22T06:34:42;24.80;70.50
17495;DHT22;8864;51.970;4.614;2023-06-22T06:37:10;24.80;70.60
17495;DHT22;8864;51.970;4.614;2023-06-22T06:39:37;24.80;70.60
17495;DHT22;8864;51.970;4.614;2023-06-22T06:42:05;24.80;70.50
17495;DHT22;8864;51.970;4.614;2023-06-22T06:44:32;24.80;70.50
17495;DHT22;8864;51.970;4.614;2023-06-22T06:46:59;24.80;70.50
17495;DHT22;8864;51.970;4.614;2023-06-22T06:49:26;24.80;70.30
17495;DHT22;8864;51.970;4.614;2023-06-22T06:51:54;24.70;70.30
17495;DHT22;8864;51.970;4.614;2023-06-22T06:54:21;24.70;70.20
17495;DHT22;8864;51.970;4.614;2023-06-22T06:56:48;24.60;70.20
17495;DHT22;8864;51.970;4.614;2023-06-22T06:59:15;24.70;70.30
17495;DHT22;8864;51.970;4.614;2023-06-22T07:01:42;24.70;70.20
17495;DHT22;8864;51.970;4.614;2023-06-22T07:04:10;24.70;70.90
17495;DHT22;8864;51.970;4.614;2023-06-22T07:06:37;24.60;70.00
17495;DHT22;8864;51.970;4.614;2023-06-22T07:09:06;24.60;70.20
17495;DHT22;8864;51.970;4.614;2023-06-22T07:11:33;24.70;70.30
17495;DHT22;8864;51.970;4.614;2023-06-22T07:14:01;24.60;70.20
17495;DHT22;8864;51.970;4.614;2023-06-22T07:16:28;24.70;70.20
17495;DHT22;8864;51.970;4.614;2023-06-22T07:18:56;24.80;70.20
17495;DHT22;8864;51.970;4.614;2023-06-22T07:21:23;24.80;70.00
17495;DHT22;8864;51.970;4.614;2023-06-22T07:23:50;24.80;70.00
17495;DHT22;8864;51.970;4.614;2023-06-22T07:26:19;24.80;69.90
17495;DHT22;8864;51.970;4.614;2023-06-22T07:28:45;24.80;69.70
17495;DHT22;8864;51.970;4.614;2023-06-22T07:31:12;24.80;69.50
17495;DHT22;8864;51.970;4.614;2023-06-22T07:33:39;24.80;69.50
17495;DHT22;8864;51.970;4.614;2023-06-22T07:36:06;24.90;69.70
17495;DHT22;8864;51.970;4.614;2023-06-22T07:38:34;24.90;69.60
17495;DHT22;8864;51.970;4.614;2023-06-22T07:41:01;24.90;70.20
17495;DHT22;8864;51.970;4.614;2023-06-22T07:43:32;24.90;69.30
17495;DHT22;8864;51.970;4.614;2023-06-22T07:45:59;24.90;69.10
17495;DHT22;8864;51.970;4.614;2023-06-22T07:48:26;24.90;68.60
17495;DHT22;8864;51.970;4.614;2023-06-22T07:50:53;24.90;68.50
17495;DHT22;8864;51.970;4.614;2023-06-22T07:53:20;24.70;68.30
17495;DHT22;8864;51.970;4.614;2023-06-22T07:55:48;25.00;67.90
17495;DHT22;8864;51.970;4.614;2023-06-22T07:58:15;24.90;67.00
17495;DHT22;8864;51.970;4.614;2023-06-22T08:00:46;24.90;67.00
17495;DHT22;8864;51.970;4.614;2023-06-22T08:03:14;25.00;67.20
17495;DHT22;8864;51.970;4.614;2023-06-22T08:05:41;24.90;67.10
17495;DHT22;8864;51.970;4.614;2023-06-22T08:08:08;25.00;67.40
17495;DHT22;8864;51.970;4.614;2023-06-22T08:10:35;25.00;67.50
17495;DHT22;8864;51.970;4.614;2023-06-22T08:13:02;25.00;67.20
17495;DHT22;8864;51.970;4.614;2023-06-22T08:15:29;25.00;67.00
17495;DHT22;8864;51.970;4.614;2023-06-22T08:17:57;25.10;67.40
17495;DHT22;8864;51.970;4.614;2023-06-22T08:20:25;25.00;66.70
17495;DHT22;8864;51.970;4.614;2023-06-22T08:22:53;25.10;66.60
17495;DHT22;8864;51.970;4.614;2023-06-22T08:25:21;25.10;66.50
17495;DHT22;8864;51.970;4.614;2023-06-22T08:27:48;25.10;66.70
17495;DHT22;8864;51.970;4.614;2023-06-22T08:30:15;25.20;66.90
17495;DHT22;8864;51.970;4.614;2023-06-22T08:32:42;25.20;67.40
17495;DHT22;8864;51.970;4.614;2023-06-22T08:35:11;25.20;67.60
17495;DHT22;8864;51.970;4.614;2023-06-22T08:37:38;25.20;67.90
17495;DHT22;8864;51.970;4.614;2023-06-22T08:40:06;25.20;67.90
17495;DHT22;8864;51.970;4.614;2023-06-22T08:42:35;25.20;68.30
17495;DHT22;8864;51.970;4.614;2023-06-22T08:45:01;25.20;68.90
17495;DHT22;8864;51.970;4.614;2023-06-22T08:47:29;25.20;68.80
17495;DHT22;8864;51.970;4.614;2023-06-22T08:49:56;25.30;69.30
17495;DHT22;8864;51.970;4.614;2023-06-22T08:52:24;25.30;69.20
17495;DHT22;8864;51.970;4.614;2023-06-22T08:54:51;25.30;69.40
17495;DHT22;8864;51.970;4.614;2023-06-22T08:57:18;25.30;69.30
17495;DHT22;8864;51.970;4.614;2023-06-22T08:59:46;25.30;69.10
17495;DHT22;8864;51.970;4.614;2023-06-22T09:02:12;25.30;69.10
17495;DHT22;8864;51.970;4.614;2023-06-22T09:04:39;25.30;69.40
17495;DHT22;8864;51.970;4.614;2023-06-22T09:07:07;25.30;70.00
17495;DHT22;8864;51.970;4.614;2023-06-22T09:09:35;25.40;70.10
17495;DHT22;8864;51.970;4.614;2023-06-22T09:12:02;25.40;70.10
17495;DHT22;8864;51.970;4.614;2023-06-22T09:14:29;25.40;70.00
17495;DHT22;8864;51.970;4.614;2023-06-22T09:16:56;25.40;70.00
17495;DHT22;8864;51.970;4.614;2023-06-22T09:19:23;25.40;69.80
17495;DHT22;8864;51.970;4.614;2023-06-22T09:21:50;25.40;69.80
17495;DHT22;8864;51.970;4.614;2023-06-22T09:24:17;25.50;69.80
17495;DHT22;8864;51.970;4.614;2023-06-22T09:26:45;25.50;69.60
17495;DHT22;8864;51.970;4.614;2023-06-22T09:29:12;25.50;69.60
17495;DHT22;8864;51.970;4.614;2023-06-22T09:31:39;25.50;69.50
17495;DHT22;8864;51.970;4.614;2023-06-22T09:34:06;25.50;69.50
17495;DHT22;8864;51.970;4.614;2023-06-22T09:36:33;25.50;69.00
17495;DHT22;8864;51.970;4.614;2023-06-22T09:39:00;25.60;68.10
17495;DHT22;8864;51.970;4.614;2023-06-22T09:41:31;25.60;68.10
17495;DHT22;8864;51.970;4.614;2023-06-22T09:44:00;25.60;67.90
17495;DHT22;8864;51.970;4.614;2023-06-22T09:46:27;25.60;67.70
17495;DHT22;8864;51.970;4.614;2023-06-22T09:48:54;25.60;67.30
17495;DHT22;8864;51.970;4.614;2023-06-22T09:51:21;25.60;67.40
17495;DHT22;8864;51.970;4.614;2023-06-22T09:53:49;25.60;67.30
17495;DHT22;8864;51.970;4.614;2023-06-22T09:56:16;25.70;67.30
17495;DHT22;8864;51.970;4.614;2023-06-22T09:58:43;25.70;66.80
17495;DHT22;8864;51.970;4.614;2023-06-22T10:01:12;25.70;66.10
17495;DHT22;8864;51.970;4.614;2023-06-22T10:03:40;25.70;66.40
17495;DHT22;8864;51.970;4.614;2023-06-22T10:06:07;25.70;65.70
17495;DHT22;8864;51.970;4.614;2023-06-22T10:08:34;25.70;65.60
17495;DHT22;8864;51.970;4.614;2023-06-22T10:11:03;25.70;65.90
17495;DHT22;8864;51.970;4.614;2023-06-22T10:13:30;25.80;66.70
17495;DHT22;8864;51.970;4.614;2023-06-22T10:15:56;25.80;66.60
17495;DHT22;8864;51.970;4.614;2023-06-22T10:18:25;25.70;66.40
17495;DHT22;8864;51.970;4.614;2023-06-22T10:20:52;25.80;66.40
17495;DHT22;8864;51.970;4.614;2023-06-22T10:23:19;25.80;66.70
17495;DHT22;8864;51.970;4.614;2023-06-22T10:25:46;25.80;66.90
17495;DHT22;8864;51.970;4.614;2023-06-22T10:28:13;25.80;67.00
17495;DHT22;8864;51.970;4.614;2023-06-22T10:30:40;25.80;66.90
17495;DHT22;8864;51.970;4.614;2023-06-22T10:33:07;25.80;66.70
17495;DHT22;8864;51.970;4.614;2023-06-22T10:35:36;25.80;66.60
17495;DHT22;8864;51.970;4.614;2023-06-22T10:38:04;25.80;66.40
17495;DHT22;8864;51.970;4.614;2023-06-22T10:40:31;25.80;66.50
17495;DHT22;8864;51.970;4.614;2023-06-22T10:42:58;25.80;67.10
17495;DHT22;8864;51.970;4.614;2023-06-22T10:45:25;25.80;67.20
17495;DHT22;8864;51.970;4.614;2023-06-22T10:47:52;25.80;67.60
17495;DHT22;8864;51.970;4.614;2023-06-22T10:50:19;25.80;68.00
17495;DHT22;8864;51.970;4.614;2023-06-22T10:52:48;25.80;68.30
17495;DHT22;8864;51.970;4.614;2023-06-22T10:55:15;25.80;68.40
17495;DHT22;8864;51.970;4.614;2023-06-22T10:57:41;25.90;68.40
17495;DHT22;8864;51.970;4.614;2023-06-22T11:00:11;25.80;68.60
17495;DHT22;8864;51.970;4.614;2023-06-22T11:02:38;25.90;68.40
17495;DHT22;8864;51.970;4.614;2023-06-22T11:05:06;25.80;68.30
17495;DHT22;8864;51.970;4.614;2023-06-22T11:07:33;25.80;69.40
17495;DHT22;8864;51.970;4.614;2023-06-22T11:10:02;25.90;69.00
17495;DHT22;8864;51.970;4.614;2023-06-22T11:12:29;25.80;69.20
17495;DHT22;8864;51.970;4.614;2023-06-22T11:14:55;25.90;69.50
17495;DHT22;8864;51.970;4.614;2023-06-22T11:17:22;25.90;69.70
17495;DHT22;8864;51.970;4.614;2023-06-22T11:19:50;25.90;69.60
17495;DHT22;8864;51.970;4.614;2023-06-22T11:22:17;25.90;69.70
17495;DHT22;8864;51.970;4.614;2023-06-22T11:24:44;25.90;69.30
17495;DHT22;8864;51.970;4.614;2023-06-22T11:27:12;25.90;69.30
17495;DHT22;8864;51.970;4.614;2023-06-22T11:29:39;25.90;69.80
17495;DHT22;8864;51.970;4.614;2023-06-22T11:32:07;25.90;70.70
17495;DHT22;8864;51.970;4.614;2023-06-22T11:34:34;25.90;71.50
17495;DHT22;8864;51.970;4.614;2023-06-22T11:37:01;25.90;71.90
17495;DHT22;8864;51.970;4.614;2023-06-22T11:39:28;25.90;72.00
17495;DHT22;8864;51.970;4.614;2023-06-22T11:41:55;25.90;71.60
17495;DHT22;8864;51.970;4.614;2023-06-22T11:44:23;25.90;71.30
17495;DHT22;8864;51.970;4.614;2023-06-22T11:46:50;25.90;71.30
17495;DHT22;8864;51.970;4.614;2023-06-22T11:49:17;25.80;71.40
17495;DHT22;8864;51.970;4.614;2023-06-22T11:51:44;25.80;71.20
17495;DHT22;8864;51.970;4.614;2023-06-22T11:54:11;25.80;71.20
17495;DHT22;8864;51.970;4.614;2023-06-22T11:56:37;25.80;71.00
17495;DHT22;8864;51.970;4.614;2023-06-22T11:59:04;25.80;70.90
17495;DHT22;8864;51.970;4.614;2023-06-22T12:01:34;25.80;70.90
17495;DHT22;8864;51.970;4.614;2023-06-22T12:04:01;25.80;70.80
17495;DHT22;8864;51.970;4.614;2023-06-22T12:06:31;25.80;71.00
17495;DHT22;8864;51.970;4.614;2023-06-22T12:08:58;25.80;71.20
17495;DHT22;8864;51.970;4.614;2023-06-22T12:11:25;25.80;71.50
17495;DHT22;8864;51.970;4.614;2023-06-22T12:13:52;25.80;71.60
17495;DHT22;8864;51.970;4.614;2023-06-22T12:16:19;25.80;71.90
17495;DHT22;8864;51.970;4.614;2023-06-22T12:18:48;25.80;72.00
17495;DHT22;8864;51.970;4.614;2023-06-22T12:21:15;25.80;72.10
17495;DHT22;8864;51.970;4.614;2023-06-22T12:23:42;25.80;72.60
17495;DHT22;8864;51.970;4.614;2023-06-22T12:26:09;25.80;72.50
17495;DHT22;8864;51.970;4.614;2023-06-22T12:28:36;25.80;72.80
17495;DHT22;8864;51.970;4.614;2023-06-22T12:31:03;25.80;73.10
17495;DHT22;8864;51.970;4.614;2023-06-22T12:33:30;25.80;73.20
17495;DHT22;8864;51.970;4.614;2023-06-22T12:35:58;25.80;73.20
17495;DHT22;8864;51.970;4.614;2023-06-22T12:38:25;25.80;72.70
17495;DHT22;8864;51.970;4.614;2023-06-22T12:40:52;25.80;72.50
17495;DHT22;8864;51.970;4.614;2023-06-22T12:43:19;25.80;72.40
17495;DHT22;8864;51.970;4.614;2023-06-22T12:45:46;25.80;72.40
17495;DHT22;8864;51.970;4.614;2023-06-22T12:48:12;25.80;72.80
17495;DHT22;8864;51.970;4.614;2023-06-22T12:50:40;25.80;72.90
17495;DHT22;8864;51.970;4.614;2023-06-22T12:53:08;25.80;73.40
17495;DHT22;8864;51.970;4.614;2023-06-22T12:55:35;25.80;74.00
17495;DHT22;8864;51.970;4.614;2023-06-22T12:58:02;25.80;74.10
17495;DHT22;8864;51.970;4.614;2023-06-22T13:00:29;25.80;74.50
17495;DHT22;8864;51.970;4.614;2023-06-22T13:02:55;25.80;74.90
17495;DHT22;8864;51.970;4.614;2023-06-22T13:05:22;25.80;75.00
17495;DHT22;8864;51.970;4.614;2023-06-22T13:07:49;25.80;75.60
17495;DHT22;8864;51.970;4.614;2023-06-22T13:10:18;25.80;75.70
17495;DHT22;8864;51.970;4.614;2023-06-22T13:12:44;25.80;76.10
17495;DHT22;8864;51.970;4.614;2023-06-22T13:15:12;25.80;76.30
17495;DHT22;8864;51.970;4.614;2023-06-22T13:17:39;25.90;76.90
17495;DHT22;8864;51.970;4.614;2023-06-22T13:20:06;25.80;77.80
17495;DHT22;8864;51.970;4.614;2023-06-22T13:22:35;25.80;77.30
17495;DHT22;8864;51.970;4.614;2023-06-22T13:25:06;25.80;77.60
17495;DHT22;8864;51.970;4.614;2023-06-22T13:27:34;25.80;78.00
17495;DHT22;8864;51.970;4.614;2023-06-22T13:30:01;25.80;78.00
17495;DHT22;8864;51.970;4.614;2023-06-22T13:32:29;25.80;78.40
17495;DHT22;8864;51.970;4.614;2023-06-22T13:34:56;25.80;79.00
17495;DHT22;8864;51.970;4.614;2023-06-22T13:37:23;25.80;79.20
17495;DHT22;8864;51.970;4.614;2023-06-22T13:39:50;25.80;79.60
17495;DHT22;8864;51.970;4.614;2023-06-22T13:42:17;25.80;79.90
17495;DHT22;8864;51.970;4.614;2023-06-22T13:44:45;25.80;80.10
17495;DHT22;8864;51.970;4.614;2023-06-22T13:47:12;25.80;80.30
17495;DHT22;8864;51.970;4.614;2023-06-22T13:49:39;25.80;80.10
17495;DHT22;8864;51.970;4.614;2023-06-22T13:52:07;25.80;80.10
17495;DHT22;8864;51.970;4.614;2023-06-22T13:54:35;25.80;80.10
17495;DHT22;8864;51.970;4.614;2023-06-22T13:57:03;25.80;80.30
17495;DHT22;8864;51.970;4.614;2023-06-22T13:59:30;25.70;80.40
17495;DHT22;8864;51.970;4.614;2023-06-22T14:01:58;25.70;80.30
17495;DHT22;8864;51.970;4.614;2023-06-22T14:04:25;25.70;80.00
17495;DHT22;8864;51.970;4.614;2023-06-22T14:06:54;25.70;79.90
17495;DHT22;8864;51.970;4.614;2023-06-22T14:09:22;25.70;79.90
17495;DHT22;8864;51.970;4.614;2023-06-22T14:11:49;25.70;80.20
17495;DHT22;8864;51.970;4.614;2023-06-22T14:14:16;25.70;80.50
17495;DHT22;8864;51.970;4.614;2023-06-22T14:16:43;25.70;80.60
17495;DHT22;8864;51.970;4.614;2023-06-22T14:19:11;25.70;81.40
17495;DHT22;8864;51.970;4.614;2023-06-22T14:21:38;25.60;82.30
17495;DHT22;8864;51.970;4.614;2023-06-22T14:24:05;25.60;82.70
17495;DHT22;8864;51.970;4.614;2023-06-22T14:26:32;25.60;83.30
17495;DHT22;8864;51.970;4.614;2023-06-22T14:28:59;25.50;83.50
17495;DHT22;8864;51.970;4.614;2023-06-22T14:31:26;25.50;83.50
17495;DHT22;8864;51.970;4.614;2023-06-22T14:33:53;25.50;83.20
17495;DHT22;8864;51.970;4.614;2023-06-22T14:36:21;25.50;83.10
17495;DHT22;8864;51.970;4.614;2023-06-22T14:38:48;25.50;82.60
17495;DHT22;8864;51.970;4.614;2023-06-22T14:41:15;25.50;82.70
17495;DHT22;8864;51.970;4.614;2023-06-22T14:43:46;25.40;82.10
17495;DHT22;8864;51.970;4.614;2023-06-22T14:46:14;25.40;81.80
17495;DHT22;8864;51.970;4.614;2023-06-22T14:48:42;25.40;81.30
17495;DHT22;8864;51.970;4.614;2023-06-22T14:51:09;25.40;80.70
17495;DHT22;8864;51.970;4.614;2023-06-22T14:53:37;25.40;80.30
17495;DHT22;8864;51.970;4.614;2023-06-22T14:56:04;25.40;80.00
17495;DHT22;8864;51.970;4.614;2023-06-22T14:58:32;25.30;79.60
17495;DHT22;8864;51.970;4.614;2023-06-22T15:00:59;25.40;79.70
17495;DHT22;8864;51.970;4.614;2023-06-22T15:03:26;25.40;79.60
17495;DHT22;8864;51.970;4.614;2023-06-22T15:05:56;25.40;79.40
17495;DHT22;8864;51.970;4.614;2023-06-22T15:08:24;25.40;78.90
17495;DHT22;8864;51.970;4.614;2023-06-22T15:10:52;25.30;78.60
17495;DHT22;8864;51.970;4.614;2023-06-22T15:13:20;25.30;78.70
17495;DHT22;8864;51.970;4.614;2023-06-22T15:15:48;25.20;78.50
17495;DHT22;8864;51.970;4.614;2023-06-22T15:18:16;25.20;78.50
17495;DHT22;8864;51.970;4.614;2023-06-22T15:20:43;25.30;78.40
17495;DHT22;8864;51.970;4.614;2023-06-22T15:23:11;25.20;78.30
17495;DHT22;8864;51.970;4.614;2023-06-22T15:25:38;25.20;78.20
17495;DHT22;8864;51.970;4.614;2023-06-22T15:28:06;25.10;78.20
17495;DHT22;8864;51.970;4.614;2023-06-22T15:30:33;25.20;78.30
17495;DHT22;8864;51.970;4.614;2023-06-22T15:33:01;25.20;78.30
17495;DHT22;8864;51.970;4.614;2023-06-22T15:35:28;25.20;78.40
17495;DHT22;8864;51.970;4.614;2023-06-22T15:37:55;25.20;78.50
17495;DHT22;8864;51.970;4.614;2023-06-22T15:40:22;25.20;78.40
17495;DHT22;8864;51.970;4.614;2023-06-22T15:42:50;25.20;78.30
17495;DHT22;8864;51.970;4.614;2023-06-22T15:45:18;25.20;78.20
17495;DHT22;8864;51.970;4.614;2023-06-22T15:47:45;25.20;78.50